sensor_id;sensor_type;location;lat;lon;timestamp;temperature;humidity
15947;DHT22;8072;52.554;7.966;2023-09-30T00:00:37;12.90;99.90
15947;DHT22;8072;52.554;7.966;2023-09-30T00:03:03;12.90;99.90
15947;DHT22;8072;52.554;7.966;2023-09-30T00:05:29;12.90;99.90
15947;DHT22;8072;52.554;7.966;2023-09-30T00:07:55;12.90;99.90
15947;DHT22;8072;52.554;7.966;2023-09-30T00:10:20;12.90;99.90
15947;DHT22;8072;52.554;7.966;2023-09-30T00:12:46;12.90;99.90
15947;DHT22;8072;52.554;7.966;2023-09-30T00:15:12;12.90;99.90
15947;DHT22;8072;52.554;7.966;2023-09-30T00:17:38;12.90;99.90
15947;DHT22;8072;52.554;7.966;2023-09-30T00:20:04;12.80;99.90
15947;DHT22;8072;52.554;7.966;2023-09-30T00:22:30;12.90;99.90
15947;DHT22;8072;52.554;7.966;2023-09-30T00:24:55;12.90;99.90
15947;DHT22;8072;52.554;7.966;2023-09-30T00:27:21;12.90;99.90
15947;DHT22;8072;52.554;7.966;2023-09-30T00:29:47;12.90;99.90
15947;DHT22;8072;52.554;7.966;2023-09-30T00:32:13;12.80;99.90
15947;DHT22;8072;52.554;7.966;2023-09-30T00:34:39;12.80;99.90
15947;DHT22;8072;52.554;7.966;2023-09-30T00:37:05;12.80;99.90
15947;DHT22;8072;52.554;7.966;2023-09-30T00:39:32;12.80;99.90
15947;DHT22;8072;52.554;7.966;2023-09-30T00:41:58;12.80;99.90
15947;DHT22;8072;52.554;7.966;2023-09-30T00:44:25;12.80;99.90
15947;DHT22;8072;52.554;7.966;2023-09-30T00:46:51;12.80;99.90
15947;DHT22;8072;52.554;7.966;2023-09-30T00:49:17;12.80;99.90
15947;DHT22;8072;52.554;7.966;2023-09-30T00:51:45;12.80;99.90
15947;DHT22;8072;52.554;7.966;2023-09-30T00:54:12;12.80;99.90
15947;DHT22;8072;52.554;7.966;2023-09-30T00:56:44;12.80;99.90
15947;DHT22;8072;52.554;7.966;2023-09-30T00:59:12;12.80;99.90
15947;DHT22;8072;52.554;7.966;2023-09-30T01:01:38;12.80;99.90
15947;DHT22;8072;52.554;7.966;2023-09-30T01:04:05;12.80;99.90
15947;DHT22;8072;52.554;7.966;2023-09-30T01:06:31;12.80;99.90
15947;DHT22;8072;52.554;7.966;2023-09-30T01:08:57;12.80;99.90
15947;DHT22;8072;52.554;7.966;2023-09-30T01:11:23;12.70;99.90
15947;DHT22;8072;52.554;7.966;2023-09-30T01:13:49;12.70;99.90
15947;DHT22;8072;52.554;7.966;2023-09-30T01:16:15;12.70;99.90
15947;DHT22;8072;52.554;7.966;2023-09-30T01:18:41;12.70;99.90
15947;DHT22;8072;52.554;7.966;2023-09-30T01:21:08;12.70;99.90
15947;DHT22;8072;52.554;7.966;2023-09-30T01:23:35;12.70;99.90
15947;DHT22;8072;52.554;7.966;2023-09-30T01:26:08;12.70;99.90
15947;DHT22;8072;52.554;7.966;2023-09-30T01:28:34;12.70;99.90
15947;DHT22;8072;52.554;7.966;2023-09-30T01:31:02;12.70;99.90
15947;DHT22;8072;52.554;7.966;2023-09-30T01:33:27;12.70;99.90
15947;DHT22;8072;52.554;7.966;2023-09-30T01:35:54;12.70;99.90
15947;DHT22;8072;52.554;7.966;2023-09-30T01:38:20;12.70;99.90
15947;DHT22;8072;52.554;7.966;2023-09-30T01:40:46;12.60;99.90
15947;DHT22;8072;52.554;7.966;2023-09-30T01:43:15;12.60;99.90
15947;DHT22;8072;52.554;7.966;2023-09-30T01:45:42;12.60;99.90
15947;DHT22;8072;52.554;7.966;2023-09-30T01:48:08;12.60;99.90
15947;DHT22;8072;52.554;7.966;2023-09-30T01:50:40;12.60;99.90
15947;DHT22;8072;52.554;7.966;2023-09-30T01:53:06;12.60;99.90
15947;DHT22;8072;52.554;7.966;2023-09-30T01:55:33;12.70;99.90
15947;DHT22;8072;52.554;7.966;2023-09-30T01:57:59;12.70;99.90
15947;DHT22;8072;52.554;7.966;2023-09-30T02:00:25;12.70;99.90
15947;DHT22;8072;52.554;7.966;2023-09-30T02:02:56;12.60;99.90
15947;DHT22;8072;52.554;7.966;2023-09-30T02:05:23;12.70;99.90
15947;DHT22;8072;52.554;7.966;2023-09-30T02:07:50;12.70;99.90
15947;DHT22;8072;52.554;7.966;2023-09-30T02:10:17;12.70;99.90
15947;DHT22;8072;52.554;7.966;2023-09-30T02:12:44;12.70;99.90
15947;DHT22;8072;52.554;7.966;2023-09-30T02:15:10;12.70;99.90
15947;DHT22;8072;52.554;7.966;2023-09-30T02:17:37;12.70;99.90
15947;DHT22;8072;52.554;7.966;2023-09-30T02:20:03;12.70;99.90
15947;DHT22;8072;52.554;7.966;2023-09-30T02:22:32;12.70;99.90
15947;DHT22;8072;52.554;7.966;2023-09-30T02:24:59;12.70;99.90
15947;DHT22;8072;52.554;7.966;2023-09-30T02:27:25;12.70;99.90
15947;DHT22;8072;52.554;7.966;2023-09-30T02:29:50;12.70;99.90
15947;DHT22;8072;52.554;7.966;2023-09-30T02:32:17;12.80;99.90
15947;DHT22;8072;52.554;7.966;2023-09-30T02:34:42;12.80;99.90
15947;DHT22;8072;52.554;7.966;2023-09-30T02:37:10;12.70;99.90
15947;DHT22;8072;52.554;7.966;2023-09-30T02:39:36;12.70;99.90
15947;DHT22;8072;52.554;7.966;2023-09-30T02:42:02;12.70;99.90
15947;DHT22;8072;52.554;7.966;2023-09-30T02:44:28;12.70;99.90
15947;DHT22;8072;52.554;7.966;2023-09-30T02:46:54;12.70;99.90
15947;DHT22;8072;52.554;7.966;2023-09-30T02:49:21;12.60;99.90
15947;DHT22;8072;52.554;7.966;2023-09-30T02:51:47;12.60;99.90
15947;DHT22;8072;52.554;7.966;2023-09-30T02:54:14;12.60;99.90
15947;DHT22;8072;52.554;7.966;2023-09-30T02:56:41;12.60;99.90
15947;DHT22;8072;52.554;7.966;2023-09-30T02:59:07;12.60;99.90
15947;DHT22;8072;52.554;7.966;2023-09-30T03:01:33;12.60;99.90
15947;DHT22;8072;52.554;7.966;2023-09-30T03:03:59;12.60;99.90
15947;DHT22;8072;52.554;7.966;2023-09-30T03:06:26;12.50;99.90
15947;DHT22;8072;52.554;7.966;2023-09-30T03:08:51;12.50;99.90
15947;DHT22;8072;52.554;7.966;2023-09-30T03:11:19;12.60;99.90
15947;DHT22;8072;52.554;7.966;2023-09-30T03:13:45;12.50;99.90
15947;DHT22;8072;52.554;7.966;2023-09-30T03:16:12;12.50;99.90
15947;DHT22;8072;52.554;7.966;2023-09-30T03:18:37;12.50;99.90
15947;DHT22;8072;52.554;7.966;2023-09-30T03:21:13;12.50;99.90
15947;DHT22;8072;52.554;7.966;2023-09-30T03:23:39;12.40;99.90
15947;DHT22;8072;52.554;7.966;2023-09-30T03:26:05;12.40;99.90
15947;DHT22;8072;52.554;7.966;2023-09-30T03:28:38;12.40;99.90
15947;DHT22;8072;52.554;7.966;2023-09-30T03:31:05;12.40;99.90
15947;DHT22;8072;52.554;7.966;2023-09-30T03:33:35;12.40;99.90
15947;DHT22;8072;52.554;7.966;2023-09-30T03:36:01;12.40;99.90
15947;DHT22;8072;52.554;7.966;2023-09-30T03:38:29;12.40;99.90
15947;DHT22;8072;52.554;7.966;2023-09-30T03:40:54;12.40;99.90
15947;DHT22;8072;52.554;7.966;2023-09-30T03:43:23;12.40;99.90
15947;DHT22;8072;52.554;7.966;2023-09-30T03:45:49;12.40;99.90
15947;DHT22;8072;52.554;7.966;2023-09-30T03:48:15;12.40;99.90
15947;DHT22;8072;52.554;7.966;2023-09-30T03:50:43;12.40;99.90
15947;DHT22;8072;52.554;7.966;2023-09-30T03:53:09;12.40;99.90
15947;DHT22;8072;52.554;7.966;2023-09-30T03:55:35;12.40;99.90
15947;DHT22;8072;52.554;7.966;2023-09-30T03:58:02;12.40;99.90
15947;DHT22;8072;52.554;7.966;2023-09-30T04:00:29;12.40;99.90
15947;DHT22;8072;52.554;7.966;2023-09-30T04:02:55;12.40;99.90
15947;DHT22;8072;52.554;7.966;2023-09-30T04:05:25;12.50;99.90
15947;DHT22;8072;52.554;7.966;2023-09-30T04:07:55;12.40;99.90
15947;DHT22;8072;52.554;7.966;2023-09-30T04:10:21;12.50;99.90
15947;DHT22;8072;52.554;7.966;2023-09-30T04:12:48;12.40;99.90
15947;DHT22;8072;52.554;7.966;2023-09-30T04:15:14;12.40;99.90
15947;DHT22;8072;52.554;7.966;2023-09-30T04:17:40;12.40;99.90
15947;DHT22;8072;52.554;7.966;2023-09-30T04:20:07;12.40;99.90
15947;DHT22;8072;52.554;7.966;2023-09-30T04:22:38;12.40;99.90
15947;DHT22;8072;52.554;7.966;2023-09-30T04:25:04;12.40;99.90
15947;DHT22;8072;52.554;7.966;2023-09-30T04:27:34;12.40;99.90
15947;DHT22;8072;52.554;7.966;2023-09-30T04:29:59;12.40;99.90
15947;DHT22;8072;52.554;7.966;2023-09-30T04:32:25;12.40;99.90
15947;DHT22;8072;52.554;7.966;2023-09-30T04:34:53;12.40;99.90
15947;DHT22;8072;52.554;7.966;2023-09-30T04:37:18;12.50;99.90
15947;DHT22;8072;52.554;7.966;2023-09-30T04:39:44;12.50;99.90
15947;DHT22;8072;52.554;7.966;2023-09-30T04:42:10;12.40;99.90
15947;DHT22;8072;52.554;7.966;2023-09-30T04:44:38;12.50;99.90
15947;DHT22;8072;52.554;7.966;2023-09-30T04:47:04;12.40;99.90
15947;DHT22;8072;52.554;7.966;2023-09-30T04:49:30;12.40;99.90
15947;DHT22;8072;52.554;7.966;2023-09-30T04:51:56;12.40;99.90
15947;DHT22;8072;52.554;7.966;2023-09-30T04:54:22;12.50;99.90
15947;DHT22;8072;52.554;7.966;2023-09-30T04:56:48;12.50;99.90
15947;DHT22;8072;52.554;7.966;2023-09-30T04:59:13;12.50;99.90
15947;DHT22;8072;52.554;7.966;2023-09-30T05:01:39;12.50;99.90
15947;DHT22;8072;52.554;7.966;2023-09-30T05:04:05;12.50;99.90
15947;DHT22;8072;52.554;7.966;2023-09-30T05:06:33;12.50;99.90
15947;DHT22;8072;52.554;7.966;2023-09-30T05:08:59;12.50;99.90
15947;DHT22;8072;52.554;7.966;2023-09-30T05:11:25;12.50;99.90
15947;DHT22;8072;52.554;7.966;2023-09-30T05:13:51;12.50;99.90
15947;DHT22;8072;52.554;7.966;2023-09-30T05:16:17;12.60;99.90
15947;DHT22;8072;52.554;7.966;2023-09-30T05:18:43;12.60;99.90
15947;DHT22;8072;52.554;7.966;2023-09-30T05:21:09;12.60;99.90
15947;DHT22;8072;52.554;7.966;2023-09-30T05:23:37;12.60;99.90
15947;DHT22;8072;52.554;7.966;2023-09-30T05:26:03;12.60;99.90
15947;DHT22;8072;52.554;7.966;2023-09-30T05:28:29;12.60;99.90
15947;DHT22;8072;52.554;7.966;2023-09-30T05:30:55;12.70;99.90
15947;DHT22;8072;52.554;7.966;2023-09-30T05:33:21;12.70;99.90
15947;DHT22;8072;52.554;7.966;2023-09-30T05:35:48;12.70;99.90
15947;DHT22;8072;52.554;7.966;2023-09-30T05:38:13;12.70;99.90
15947;DHT22;8072;52.554;7.966;2023-09-30T05:40:39;12.70;99.90
15947;DHT22;8072;52.554;7.966;2023-09-30T05:43:07;12.70;99.90
15947;DHT22;8072;52.554;7.966;2023-09-30T05:45:33;12.70;99.90
15947;DHT22;8072;52.554;7.966;2023-09-30T05:48:04;12.70;99.90
15947;DHT22;8072;52.554;7.966;2023-09-30T05:50:34;12.70;99.90
15947;DHT22;8072;52.554;7.966;2023-09-30T05:53:02;12.80;99.90
15947;DHT22;8072;52.554;7.966;2023-09-30T05:55:30;12.70;99.90
15947;DHT22;8072;52.554;7.966;2023-09-30T05:57:55;12.80;99.90
15947;DHT22;8072;52.554;7.966;2023-09-30T06:00:21;12.80;99.90
15947;DHT22;8072;52.554;7.966;2023-09-30T06:02:57;12.70;99.90
15947;DHT22;8072;52.554;7.966;2023-09-30T06:05:23;12.70;99.90
15947;DHT22;8072;52.554;7.966;2023-09-30T06:07:49;12.70;99.90
15947;DHT22;8072;52.554;7.966;2023-09-30T06:10:15;12.70;99.90
15947;DHT22;8072;52.554;7.966;2023-09-30T06:12:41;12.70;99.90
15947;DHT22;8072;52.554;7.966;2023-09-30T06:15:07;12.80;99.90
15947;DHT22;8072;52.554;7.966;2023-09-30T06:17:33;12.70;99.90
15947;DHT22;8072;52.554;7.966;2023-09-30T06:19:59;12.70;99.90
15947;DHT22;8072;52.554;7.966;2023-09-30T06:22:33;12.80;99.90
15947;DHT22;8072;52.554;7.966;2023-09-30T06:24:58;12.80;99.90
15947;DHT22;8072;52.554;7.966;2023-09-30T06:27:24;12.80;99.90
15947;DHT22;8072;52.554;7.966;2023-09-30T06:29:50;12.80;99.90
15947;DHT22;8072;52.554;7.966;2023-09-30T06:32:16;12.80;99.90
15947;DHT22;8072;52.554;7.966;2023-09-30T06:34:41;12.80;99.90
15947;DHT22;8072;52.554;7.966;2023-09-30T06:37:08;12.90;99.90
15947;DHT22;8072;52.554;7.966;2023-09-30T06:39:34;12.90;99.90
15947;DHT22;8072;52.554;7.966;2023-09-30T06:41:59;12.90;99.90
15947;DHT22;8072;52.554;7.966;2023-09-30T06:44:25;13.00;99.90
15947;DHT22;8072;52.554;7.966;2023-09-30T06:46:51;13.00;99.90
15947;DHT22;8072;52.554;7.966;2023-09-30T06:49:17;13.10;99.90
15947;DHT22;8072;52.554;7.966;2023-09-30T06:51:42;13.10;99.90
15947;DHT22;8072;52.554;7.966;2023-09-30T06:54:08;13.10;99.90
15947;DHT22;8072;52.554;7.966;2023-09-30T06:56:34;13.20;99.90
15947;DHT22;8072;52.554;7.966;2023-09-30T06:59:01;13.20;99.90
15947;DHT22;8072;52.554;7.966;2023-09-30T07:01:27;13.30;99.90
15947;DHT22;8072;52.554;7.966;2023-09-30T07:03:53;13.30;99.90
15947;DHT22;8072;52.554;7.966;2023-09-30T07:06:25;13.40;99.90
15947;DHT22;8072;52.554;7.966;2023-09-30T07:08:52;13.50;99.90
15947;DHT22;8072;52.554;7.966;2023-09-30T07:11:27;13.50;99.90
15947;DHT22;8072;52.554;7.966;2023-09-30T07:13:53;13.60;99.90
15947;DHT22;8072;52.554;7.966;2023-09-30T07:16:19;13.60;99.90
15947;DHT22;8072;52.554;7.966;2023-09-30T07:18:45;13.70;99.90
15947;DHT22;8072;52.554;7.966;2023-09-30T07:21:13;13.80;99.90
15947;DHT22;8072;52.554;7.966;2023-09-30T07:23:39;13.80;99.90
15947;DHT22;8072;52.554;7.966;2023-09-30T07:26:06;13.90;99.90
15947;DHT22;8072;52.554;7.966;2023-09-30T07:28:33;14.00;99.90
15947;DHT22;8072;52.554;7.966;2023-09-30T07:30:58;14.00;99.90
15947;DHT22;8072;52.554;7.966;2023-09-30T07:33:24;14.00;99.90
15947;DHT22;8072;52.554;7.966;2023-09-30T07:35:50;14.10;99.90
15947;DHT22;8072;52.554;7.966;2023-09-30T07:38:16;14.20;99.90
15947;DHT22;8072;52.554;7.966;2023-09-30T07:40:42;14.20;99.90
15947;DHT22;8072;52.554;7.966;2023-09-30T07:43:08;14.30;99.90
15947;DHT22;8072;52.554;7.966;2023-09-30T07:45:34;14.40;99.90
15947;DHT22;8072;52.554;7.966;2023-09-30T07:48:00;14.50;99.90
15947;DHT22;8072;52.554;7.966;2023-09-30T07:50:30;14.50;99.90
15947;DHT22;8072;52.554;7.966;2023-09-30T07:52:56;14.60;99.90
15947;DHT22;8072;52.554;7.966;2023-09-30T07:55:24;14.70;99.90
15947;DHT22;8072;52.554;7.966;2023-09-30T07:57:49;14.70;99.90
15947;DHT22;8072;52.554;7.966;2023-09-30T08:00:15;14.80;99.90
15947;DHT22;8072;52.554;7.966;2023-09-30T08:02:42;14.90;99.90
15947;DHT22;8072;52.554;7.966;2023-09-30T08:05:09;14.90;99.90
15947;DHT22;8072;52.554;7.966;2023-09-30T08:07:35;15.00;99.90
15947;DHT22;8072;52.554;7.966;2023-09-30T08:10:02;15.10;99.90
15947;DHT22;8072;52.554;7.966;2023-09-30T08:12:30;15.20;99.90
15947;DHT22;8072;52.554;7.966;2023-09-30T08:14:56;15.30;99.90
15947;DHT22;8072;52.554;7.966;2023-09-30T08:17:21;15.40;99.90
15947;DHT22;8072;52.554;7.966;2023-09-30T08:19:47;15.40;99.90
15947;DHT22;8072;52.554;7.966;2023-09-30T08:22:13;15.50;99.90
15947;DHT22;8072;52.554;7.966;2023-09-30T08:24:39;15.50;99.90
15947;DHT22;8072;52.554;7.966;2023-09-30T08:27:05;15.70;99.90
15947;DHT22;8072;52.554;7.966;2023-09-30T08:29:35;15.70;99.90
15947;DHT22;8072;52.554;7.966;2023-09-30T08:32:04;15.80;99.90
15947;DHT22;8072;52.554;7.966;2023-09-30T08:34:30;15.90;99.90
15947;DHT22;8072;52.554;7.966;2023-09-30T08:36:56;15.90;99.90
15947;DHT22;8072;52.554;7.966;2023-09-30T08:39:22;15.90;99.90
15947;DHT22;8072;52.554;7.966;2023-09-30T08:41:50;16.00;99.90
15947;DHT22;8072;52.554;7.966;2023-09-30T08:44:16;16.10;99.90
15947;DHT22;8072;52.554;7.966;2023-09-30T08:46:43;16.20;99.90
15947;DHT22;8072;52.554;7.966;2023-09-30T08:49:10;16.20;99.90
15947;DHT22;8072;52.554;7.966;2023-09-30T08:51:37;16.20;99.90
15947;DHT22;8072;52.554;7.966;2023-09-30T08:54:04;16.30;99.90
15947;DHT22;8072;52.554;7.966;2023-09-30T08:56:31;16.30;99.90
15947;DHT22;8072;52.554;7.966;2023-09-30T08:59:02;16.40;99.90
15947;DHT22;8072;52.554;7.966;2023-09-30T09:01:29;16.50;99.90
15947;DHT22;8072;52.554;7.966;2023-09-30T09:03:56;16.60;99.90
15947;DHT22;8072;52.554;7.966;2023-09-30T09:06:24;16.60;99.90
15947;DHT22;8072;52.554;7.966;2023-09-30T09:08:50;16.60;99.90
15947;DHT22;8072;52.554;7.966;2023-09-30T09:11:16;16.70;99.90
15947;DHT22;8072;52.554;7.966;2023-09-30T09:13:55;16.70;99.90
15947;DHT22;8072;52.554;7.966;2023-09-30T09:16:22;16.80;99.90
15947;DHT22;8072;52.554;7.966;2023-09-30T09:18:49;16.90;99.90
15947;DHT22;8072;52.554;7.966;2023-09-30T09:21:21;17.00;99.90
15947;DHT22;8072;52.554;7.966;2023-09-30T09:23:53;17.00;99.90
15947;DHT22;8072;52.554;7.966;2023-09-30T09:26:28;17.10;99.90
15947;DHT22;8072;52.554;7.966;2023-09-30T09:29:00;17.10;99.90
15947;DHT22;8072;52.554;7.966;2023-09-30T09:31:28;17.20;99.90
15947;DHT22;8072;52.554;7.966;2023-09-30T09:33:55;17.20;99.90
15947;DHT22;8072;52.554;7.966;2023-09-30T09:36:21;17.30;99.90
15947;DHT22;8072;52.554;7.966;2023-09-30T09:38:50;17.40;99.90
15947;DHT22;8072;52.554;7.966;2023-09-30T09:41:19;17.40;99.90
15947;DHT22;8072;52.554;7.966;2023-09-30T09:43:48;17.50;99.90
15947;DHT22;8072;52.554;7.966;2023-09-30T09:46:16;17.50;99.90
15947;DHT22;8072;52.554;7.966;2023-09-30T09:48:45;17.60;99.90
15947;DHT22;8072;52.554;7.966;2023-09-30T09:51:13;17.70;99.90
15947;DHT22;8072;52.554;7.966;2023-09-30T09:53:41;17.70;99.90
15947;DHT22;8072;52.554;7.966;2023-09-30T09:56:10;17.80;99.90
15947;DHT22;8072;52.554;7.966;2023-09-30T09:58:39;17.90;99.90
15947;DHT22;8072;52.554;7.966;2023-09-30T10:01:09;17.90;99.90
15947;DHT22;8072;52.554;7.966;2023-09-30T10:03:36;17.90;99.90
15947;DHT22;8072;52.554;7.966;2023-09-30T10:06:03;18.00;99.90
15947;DHT22;8072;52.554;7.966;2023-09-30T10:08:49;18.00;99.90
15947;DHT22;8072;52.554;7.966;2023-09-30T10:11:18;18.00;99.90
15947;DHT22;8072;52.554;7.966;2023-09-30T10:13:54;18.10;99.90
15947;DHT22;8072;52.554;7.966;2023-09-30T10:19:23;18.20;99.90
15947;DHT22;8072;52.554;7.966;2023-09-30T10:24:50;18.20;99.90
15947;DHT22;8072;52.554;7.966;2023-09-30T10:29:53;18.40;99.90
15947;DHT22;8072;52.554;7.966;2023-09-30T10:32:20;18.50;99.90
15947;DHT22;8072;52.554;7.966;2023-09-30T10:34:49;18.50;99.90
15947;DHT22;8072;52.554;7.966;2023-09-30T10:37:24;18.60;99.90
15947;DHT22;8072;52.554;7.966;2023-09-30T10:39:58;18.70;99.90
15947;DHT22;8072;52.554;7.966;2023-09-30T10:50:59;18.90;99.90
15947;DHT22;8072;52.554;7.966;2023-09-30T10:53:29;19.00;99.90
15947;DHT22;8072;52.554;7.966;2023-09-30T10:56:00;19.00;99.90
15947;DHT22;8072;52.554;7.966;2023-09-30T10:58:49;19.20;99.90
15947;DHT22;8072;52.554;7.966;2023-09-30T11:01:22;19.20;99.90
15947;DHT22;8072;52.554;7.966;2023-09-30T11:03:49;19.20;99.90
15947;DHT22;8072;52.554;7.966;2023-09-30T11:06:20;19.00;99.90
15947;DHT22;8072;52.554;7.966;2023-09-30T11:08:55;18.80;99.90
15947;DHT22;8072;52.554;7.966;2023-09-30T11:11:44;18.70;99.90
15947;DHT22;8072;52.554;7.966;2023-09-30T11:16:51;18.80;99.90
15947;DHT22;8072;52.554;7.966;2023-09-30T11:19:18;18.80;99.90
15947;DHT22;8072;52.554;7.966;2023-09-30T11:21:51;18.90;99.90
15947;DHT22;8072;52.554;7.966;2023-09-30T11:24:18;18.80;99.90
15947;DHT22;8072;52.554;7.966;2023-09-30T11:26:47;18.70;99.90
15947;DHT22;8072;52.554;7.966;2023-09-30T11:29:16;18.60;99.90
15947;DHT22;8072;52.554;7.966;2023-09-30T11:31:48;18.80;99.90
15947;DHT22;8072;52.554;7.966;2023-09-30T11:34:15;19.00;99.90
15947;DHT22;8072;52.554;7.966;2023-09-30T11:36:48;19.20;99.90
15947;DHT22;8072;52.554;7.966;2023-09-30T11:39:26;19.40;99.90
15947;DHT22;8072;52.554;7.966;2023-09-30T11:41:53;19.60;99.90
15947;DHT22;8072;52.554;7.966;2023-09-30T11:44:21;19.70;99.90
15947;DHT22;8072;52.554;7.966;2023-09-30T11:52:02;19.70;99.90
15947;DHT22;8072;52.554;7.966;2023-09-30T11:54:36;19.70;99.90
15947;DHT22;8072;52.554;7.966;2023-09-30T11:57:11;19.50;99.90
15947;DHT22;8072;52.554;7.966;2023-09-30T11:59:38;19.40;99.90
15947;DHT22;8072;52.554;7.966;2023-09-30T12:02:09;19.30;99.90
15947;DHT22;8072;52.554;7.966;2023-09-30T12:04:36;19.20;99.90
15947;DHT22;8072;52.554;7.966;2023-09-30T12:07:02;19.10;99.90
15947;DHT22;8072;52.554;7.966;2023-09-30T12:09:28;19.00;99.90
15947;DHT22;8072;52.554;7.966;2023-09-30T12:11:55;19.00;99.90
15947;DHT22;8072;52.554;7.966;2023-09-30T12:14:23;19.20;99.90
15947;DHT22;8072;52.554;7.966;2023-09-30T12:16:49;19.40;99.90
15947;DHT22;8072;52.554;7.966;2023-09-30T12:19:17;19.40;99.90
15947;DHT22;8072;52.554;7.966;2023-09-30T12:21:44;19.30;99.90
15947;DHT22;8072;52.554;7.966;2023-09-30T12:24:12;19.20;99.90
15947;DHT22;8072;52.554;7.966;2023-09-30T12:26:45;19.10;99.90
15947;DHT22;8072;52.554;7.966;2023-09-30T12:29:21;18.90;99.90
15947;DHT22;8072;52.554;7.966;2023-09-30T12:31:51;18.90;99.90
15947;DHT22;8072;52.554;7.966;2023-09-30T12:34:17;19.00;99.90
15947;DHT22;8072;52.554;7.966;2023-09-30T12:36:44;19.20;99.90
15947;DHT22;8072;52.554;7.966;2023-09-30T12:39:10;19.50;99.90
15947;DHT22;8072;52.554;7.966;2023-09-30T12:41:43;19.80;99.90
15947;DHT22;8072;52.554;7.966;2023-09-30T12:44:10;20.00;99.90
15947;DHT22;8072;52.554;7.966;2023-09-30T12:46:36;20.10;99.90
15947;DHT22;8072;52.554;7.966;2023-09-30T12:49:08;20.40;99.90
15947;DHT22;8072;52.554;7.966;2023-09-30T12:51:35;20.50;99.90
15947;DHT22;8072;52.554;7.966;2023-09-30T12:54:02;20.60;99.90
15947;DHT22;8072;52.554;7.966;2023-09-30T12:56:28;20.80;99.90
15947;DHT22;8072;52.554;7.966;2023-09-30T12:58:55;20.90;99.90
15947;DHT22;8072;52.554;7.966;2023-09-30T13:01:21;20.90;99.90
15947;DHT22;8072;52.554;7.966;2023-09-30T13:03:48;20.80;99.90
15947;DHT22;8072;52.554;7.966;2023-09-30T13:06:15;20.50;99.90
15947;DHT22;8072;52.554;7.966;2023-09-30T13:08:44;20.40;99.90
15947;DHT22;8072;52.554;7.966;2023-09-30T13:11:10;20.30;99.90
15947;DHT22;8072;52.554;7.966;2023-09-30T13:13:37;20.50;99.90
15947;DHT22;8072;52.554;7.966;2023-09-30T13:16:04;20.50;99.90
15947;DHT22;8072;52.554;7.966;2023-09-30T13:18:35;20.60;99.90
15947;DHT22;8072;52.554;7.966;2023-09-30T13:21:02;20.70;99.90
15947;DHT22;8072;52.554;7.966;2023-09-30T13:23:29;20.80;99.90
15947;DHT22;8072;52.554;7.966;2023-09-30T13:25:55;20.90;99.90
15947;DHT22;8072;52.554;7.966;2023-09-30T13:28:21;20.80;99.90
15947;DHT22;8072;52.554;7.966;2023-09-30T13:30:47;21.00;99.90
15947;DHT22;8072;52.554;7.966;2023-09-30T13:33:13;21.10;99.90
15947;DHT22;8072;52.554;7.966;2023-09-30T13:35:39;20.90;99.90
15947;DHT22;8072;52.554;7.966;2023-09-30T13:38:05;20.80;99.90
15947;DHT22;8072;52.554;7.966;2023-09-30T13:40:31;20.70;99.90
15947;DHT22;8072;52.554;7.966;2023-09-30T13:42:56;20.50;99.90
15947;DHT22;8072;52.554;7.966;2023-09-30T13:45:24;20.30;99.90
15947;DHT22;8072;52.554;7.966;2023-09-30T13:47:50;20.10;99.90
15947;DHT22;8072;52.554;7.966;2023-09-30T13:50:16;20.00;99.90
15947;DHT22;8072;52.554;7.966;2023-09-30T13:52:42;20.00;99.90
15947;DHT22;8072;52.554;7.966;2023-09-30T13:55:08;19.80;99.90
15947;DHT22;8072;52.554;7.966;2023-09-30T13:57:34;19.60;99.90
15947;DHT22;8072;52.554;7.966;2023-09-30T14:00:02;19.50;99.90
15947;DHT22;8072;52.554;7.966;2023-09-30T14:02:29;19.40;99.90
15947;DHT22;8072;52.554;7.966;2023-09-30T14:04:55;19.40;99.90
15947;DHT22;8072;52.554;7.966;2023-09-30T14:07:21;19.50;99.90
15947;DHT22;8072;52.554;7.966;2023-09-30T14:09:47;19.70;99.90
15947;DHT22;8072;52.554;7.966;2023-09-30T14:12:13;19.80;99.90
15947;DHT22;8072;52.554;7.966;2023-09-30T14:14:39;19.90;99.90
15947;DHT22;8072;52.554;7.966;2023-09-30T14:17:05;19.80;99.90
15947;DHT22;8072;52.554;7.966;2023-09-30T14:19:35;19.80;99.90
15947;DHT22;8072;52.554;7.966;2023-09-30T14:22:01;19.80;99.90
15947;DHT22;8072;52.554;7.966;2023-09-30T14:24:27;19.70;99.90
15947;DHT22;8072;52.554;7.966;2023-09-30T14:26:53;19.80;99.90
15947;DHT22;8072;52.554;7.966;2023-09-30T14:29:21;19.80;99.90
15947;DHT22;8072;52.554;7.966;2023-09-30T14:31:46;19.80;99.90
15947;DHT22;8072;52.554;7.966;2023-09-30T14:34:12;19.70;99.90
15947;DHT22;8072;52.554;7.966;2023-09-30T14:36:40;19.70;99.90
15947;DHT22;8072;52.554;7.966;2023-09-30T14:39:06;19.60;99.90
15947;DHT22;8072;52.554;7.966;2023-09-30T14:41:32;19.60;99.90
15947;DHT22;8072;52.554;7.966;2023-09-30T14:43:58;19.60;99.90
15947;DHT22;8072;52.554;7.966;2023-09-30T14:46:24;19.50;99.90
15947;DHT22;8072;52.554;7.966;2023-09-30T14:48:49;19.60;99.90
15947;DHT22;8072;52.554;7.966;2023-09-30T14:51:15;19.70;99.90
15947;DHT22;8072;52.554;7.966;2023-09-30T14:53:42;19.70;99.90
15947;DHT22;8072;52.554;7.966;2023-09-30T14:56:26;19.80;99.90
15947;DHT22;8072;52.554;7.966;2023-09-30T14:58:51;19.70;99.90
15947;DHT22;8072;52.554;7.966;2023-09-30T15:01:17;19.70;99.90
15947;DHT22;8072;52.554;7.966;2023-09-30T15:03:45;19.70;99.90
15947;DHT22;8072;52.554;7.966;2023-09-30T15:06:11;19.70;99.90
15947;DHT22;8072;52.554;7.966;2023-09-30T15:08:37;19.70;99.90
15947;DHT22;8072;52.554;7.966;2023-09-30T15:11:03;19.70;99.90
15947;DHT22;8072;52.554;7.966;2023-09-30T15:13:29;19.60;99.90
15947;DHT22;8072;52.554;7.966;2023-09-30T15:15:55;19.70;99.90
15947;DHT22;8072;52.554;7.966;2023-09-30T15:18:21;19.60;99.90
15947;DHT22;8072;52.554;7.966;2023-09-30T15:20:49;19.60;99.90
15947;DHT22;8072;52.554;7.966;2023-09-30T15:23:16;19.50;99.90
15947;DHT22;8072;52.554;7.966;2023-09-30T15:25:42;19.40;99.90
15947;DHT22;8072;52.554;7.966;2023-09-30T15:28:15;19.30;99.90
15947;DHT22;8072;52.554;7.966;2023-09-30T15:30:40;19.30;99.90
15947;DHT22;8072;52.554;7.966;2023-09-30T15:33:06;19.20;99.90
15947;DHT22;8072;52.554;7.966;2023-09-30T15:35:32;19.10;99.90
15947;DHT22;8072;52.554;7.966;2023-09-30T15:37:58;19.10;99.90
15947;DHT22;8072;52.554;7.966;2023-09-30T15:40:24;19.00;99.90
15947;DHT22;8072;52.554;7.966;2023-09-30T15:42:50;19.00;99.90
15947;DHT22;8072;52.554;7.966;2023-09-30T15:45:16;19.00;99.90
15947;DHT22;8072;52.554;7.966;2023-09-30T15:47:44;19.00;99.90
15947;DHT22;8072;52.554;7.966;2023-09-30T15:50:10;18.90;99.90
15947;DHT22;8072;52.554;7.966;2023-09-30T15:52:36;18.90;99.90
15947;DHT22;8072;52.554;7.966;2023-09-30T15:55:02;18.90;99.90
15947;DHT22;8072;52.554;7.966;2023-09-30T15:57:28;18.90;99.90
15947;DHT22;8072;52.554;7.966;2023-09-30T15:59:54;18.90;99.90
15947;DHT22;8072;52.554;7.966;2023-09-30T16:02:20;18.90;99.90
15947;DHT22;8072;52.554;7.966;2023-09-30T16:04:46;18.90;99.90
15947;DHT22;8072;52.554;7.966;2023-09-30T16:07:12;18.80;99.90
15947;DHT22;8072;52.554;7.966;2023-09-30T16:09:37;18.80;99.90